Time;durP1;ratioP1;P1;durP2;ratioP2;P2;SDS_P1;SDS_P2;PMS_P1;PMS_P2;Temp;Humidity;BMP_temperature;BMP_pressure;BME280_temperature;BME280_humidity;BME280_pressure;Samples;Min_cycle;Max_cycle;Signal;HPM_P1;HPM_P2
2022/09/17 00:01:19;;;;;;;4.80;2.90;;;;;;;10.10;80.58;97601.22;1709330;83;27465;-63
2022/09/17 00:04:03;;;;;;;4.08;2.90;;;;;;;10.09;80.63;97600.96;1708809;83;25770;-61
2022/09/17 00:06:33;;;;;;;3.05;2.75;;;;;;;10.02;80.63;97598.79;1708481;83;25537;-62
2022/09/17 00:09:11;;;;;;;4.37;2.77;;;;;;;9.98;80.79;97593.17;1708960;84;25927;-59
2022/09/17 00:11:40;;;;;;;4.33;2.45;;;;;;;10.01;80.82;97594.43;1708419;83;25603;-59
2022/09/17 00:14:13;;;;;;;5.83;2.90;;;;;;;9.98;80.98;97590.44;1708949;84;27362;-59
2022/09/17 00:16:44;;;;;;;4.05;3.00;;;;;;;9.98;81.14;97589.62;1709013;84;25619;-59
2022/09/17 00:19:21;;;;;;;4.90;3.35;;;;;;;9.98;81.28;97588.26;1709010;84;25604;-59
2022/09/17 00:21:49;;;;;;;3.87;3.17;;;;;;;10.00;81.40;97585.44;1709051;84;25663;-59
2022/09/17 00:24:16;;;;;;;6.17;3.50;;;;;;;9.98;81.48;97586.33;1708976;84;25514;-59
2022/09/17 00:26:43;;;;;;;6.33;3.52;;;;;;;9.99;81.70;97585.77;1708994;84;27366;-59
2022/09/17 00:29:10;;;;;;;6.65;3.75;;;;;;;9.98;82.11;97590.44;1708739;84;25651;-60
2022/09/17 00:31:36;;;;;;;6.75;4.28;;;;;;;9.97;82.56;97583.93;1709005;83;25493;-60
2022/09/17 00:34:05;;;;;;;4.80;3.90;;;;;;;9.96;82.51;97583.12;1709023;83;25734;-63
2022/09/17 00:36:35;;;;;;;7.35;4.35;;;;;;;9.97;82.46;97589.41;1709014;84;25497;-60
2022/09/17 00:39:03;;;;;;;5.43;3.90;;;;;;;9.94;82.70;97581.86;1709547;83;27281;-59
2022/09/17 00:41:32;;;;;;;6.20;3.98;;;;;;;9.92;82.67;97579.46;1708729;83;25696;-60
2022/09/17 00:44:03;;;;;;;6.60;4.58;;;;;;;9.89;82.54;97583.68;1708953;84;25690;-60
2022/09/17 00:46:40;;;;;;;6.12;4.17;;;;;;;9.87;82.77;97584.57;1706053;84;25853;-61
2022/09/17 00:49:22;;;;;;;5.87;4.22;;;;;;;9.91;82.72;97579.23;1709257;84;25581;-60
2022/09/17 00:52:11;;;;;;;6.60;4.40;;;;;;;9.91;82.73;97584.13;1709141;83;27761;-60
2022/09/17 00:54:42;;;;;;;7.58;4.62;;;;;;;9.91;82.78;97577.87;1709010;83;25627;-59
2022/09/17 00:57:08;;;;;;;5.03;4.53;;;;;;;9.90;82.96;97577.06;1709223;84;25451;-59
2022/09/17 00:59:35;;;;;;;8.08;4.47;;;;;;;9.91;82.97;97573.18;1708721;83;25717;-60
2022/09/17 01:02:02;;;;;;;6.90;4.33;;;;;;;9.89;83.07;97576.03;1709205;83;25449;-59
2022/09/17 01:04:27;;;;;;;7.25;4.42;;;;;;;9.88;83.60;97581.28;1708961;84;27455;-59
2022/09/17 01:07:20;;;;;;;7.15;4.47;;;;;;;9.88;83.30;97573.84;1708903;84;25695;-59
2022/09/17 01:10:04;;;;;;;6.17;4.55;;;;;;;9.89;83.74;97576.03;1708724;83;25612;-60
2022/09/17 01:13:19;;;;;;;5.97;4.53;;;;;;;9.87;83.74;97575.55;1707908;83;25723;-59
2022/09/17 01:16:15;;;;;;;12.28;5.37;;;;;;;9.86;83.60;97572.03;1708903;83;25679;-60
2022/09/17 01:19:12;;;;;;;7.83;5.10;;;;;;;9.85;83.49;97576.48;1708901;83;28301;-59
2022/09/17 01:21:53;;;;;;;7.37;4.78;;;;;;;9.85;83.62;97574.55;1708481;83;25583;-59
2022/09/17 01:24:57;;;;;;;8.18;5.15;;;;;;;9.84;83.68;97570.78;1708842;83;25711;-59
2022/09/17 01:27:52;;;;;;;7.05;4.50;;;;;;;9.82;83.67;97569.75;1681951;85;25818;-60
2022/09/17 01:30:38;;;;;;;6.90;4.50;;;;;;;9.79;83.85;97571.78;1682608;84;25714;-60
2022/09/17 01:33:16;;;;;;;6.20;4.53;;;;;;;9.75;83.91;97574.38;1682283;85;28506;-59
2022/09/17 01:35:47;;;;;;;8.18;4.58;;;;;;;9.75;83.85;97570.83;1682588;85;25656;-59
2022/09/17 01:38:33;;;;;;;7.87;4.55;;;;;;;9.72;84.12;97572.31;1682757;85;25652;-59
2022/09/17 01:41:38;;;;;;;6.90;4.47;;;;;;;9.73;84.06;97575.86;1682463;85;26645;-59
2022/09/17 01:44:28;;;;;;;6.45;4.60;;;;;;;9.71;84.05;97568.55;1682553;85;25568;-59
2022/09/17 01:47:04;;;;;;;6.70;4.15;;;;;;;9.70;84.03;97566.95;1680948;85;27500;-59
2022/09/17 01:49:34;;;;;;;8.13;4.53;;;;;;;9.69;84.11;97572.98;1682515;85;25521;-59
2022/09/17 01:52:02;;;;;;;4.80;3.77;;;;;;;9.68;84.08;97565.92;1682550;85;25715;-62
2022/09/17 01:54:42;;;;;;;5.75;3.77;;;;;;;9.65;84.24;97567.95;1682492;85;25751;-62
2022/09/17 01:57:26;;;;;;;5.70;4.40;;;;;;;9.64;84.66;97571.80;1681950;85;25719;-61
2022/09/17 01:59:58;;;;;;;6.22;3.77;;;;;;;9.61;84.35;97567.00;1682340;84;28428;-61
2022/09/17 02:02:51;;;;;;;8.60;4.10;;;;;;;9.61;84.38;97564.27;1681208;85;25738;-61
2022/09/17 02:05:43;;;;;;;6.83;4.53;;;;;;;9.59;84.34;97561.08;1707570;84;26460;-62
2022/09/17 02:08:18;;;;;;;5.62;4.17;;;;;;;9.59;84.34;97564.63;1707515;83;26687;-62
2022/09/17 02:10:51;;;;;;;7.10;5.00;;;;;;;9.58;84.39;97566.33;1708300;83;25465;-62
2022/09/17 02:13:22;;;;;;;7.22;4.45;;;;;;;9.54;84.61;97568.36;1708976;84;27438;-59
2022/09/17 02:16:00;;;;;;;6.97;4.05;;;;;;;9.50;85.00;97570.14;1709058;84;25726;-60
2022/09/17 02:18:40;;;;;;;7.17;4.83;;;;;;;9.49;85.67;97571.84;1704493;83;25513;-60
2022/09/17 02:21:27;;;;;;;10.97;4.77;;;;;;;9.47;85.39;97573.55;1709217;83;26439;-61
2022/09/17 02:24:19;;;;;;;6.45;3.85;;;;;;;9.45;85.70;97579.13;1709101;84;25691;-61
2022/09/17 02:27:08;;;;;;;5.83;3.98;;;;;;;9.43;86.64;97582.19;1708645;84;27433;-60
2022/09/17 02:29:41;;;;;;;6.28;3.67;;;;;;;9.41;86.57;97583.08;1708496;83;25944;-63
2022/09/17 02:32:08;;;;;;;6.08;4.60;;;;;;;9.39;86.92;97588.09;1708920;84;25679;-60
2022/09/17 02:34:35;;;;;;;7.58;4.10;;;;;;;9.39;86.41;97588.88;1708581;84;27709;-60
2022/09/17 02:37:03;;;;;;;5.22;3.77;;;;;;;9.38;86.56;97587.84;1708988;84;25603;-61
2022/09/17 02:39:30;;;;;;;5.70;3.83;;;;;;;9.37;86.83;97587.06;1708851;84;28325;-61
2022/09/17 02:42:07;;;;;;;7.08;4.40;;;;;;;9.39;86.65;97592.20;1708982;84;25663;-61
2022/09/17 02:45:03;;;;;;;6.47;4.37;;;;;;;9.39;86.63;97586.73;1709041;83;25672;-62
2022/09/17 02:47:49;;;;;;;7.50;4.05;;;;;;;9.39;86.56;97584.00;1682034;85;25758;-59
2022/09/17 02:50:33;;;;;;;5.75;3.60;;;;;;;9.36;86.67;97585.44;1642073;87;25709;-59
2022/09/17 02:53:35;;;;;;;5.97;3.55;;;;;;;9.35;86.68;97581.67;1642300;87;28253;-59
2022/09/17 02:56:32;;;;;;;4.65;3.35;;;;;;;9.34;86.98;97582.25;1642020;87;25783;-59
2022/09/17 02:59:19;;;;;;;4.50;3.40;;;;;;;9.33;86.98;97577.93;1641881;87;25705;-60
2022/09/17 03:01:53;;;;;;;6.00;3.15;;;;;;;9.29;87.01;97575.05;1650781;86;25705;-59
2022/09/17 03:04:23;;;;;;;5.10;3.52;;;;;;;9.27;86.92;97575.94;1654097;86;25738;-59
2022/09/17 03:06:52;;;;;;;4.90;3.02;;;;;;;9.27;86.70;97568.32;1654452;86;27426;-59
2022/09/17 03:09:19;;;;;;;3.75;3.35;;;;;;;9.26;86.57;97559.86;1652817;86;25816;-59
2022/09/17 03:11:45;;;;;;;4.60;3.42;;;;;;;9.24;86.95;97556.68;1653061;86;25803;-59
2022/09/17 03:14:11;;;;;;;5.67;3.52;;;;;;;9.22;86.55;97552.91;1653866;86;26504;-60
2022/09/17 03:16:37;;;;;;;3.92;2.58;;;;;;;9.20;86.61;97551.62;1654029;86;25810;-59
2022/09/17 03:19:03;;;;;;;6.05;3.70;;;;;;;9.18;87.11;97553.91;1654366;86;27416;-62
2022/09/17 03:21:30;;;;;;;7.37;3.87;;;;;;;9.18;86.77;97558.78;1653948;86;25756;-60
2022/09/17 03:23:59;;;;;;;6.20;3.62;;;;;;;9.18;86.86;97558.78;1654704;86;25672;-61
2022/09/17 03:26:24;;;;;;;5.25;3.45;;;;;;;9.17;87.14;97550.36;1660926;83;25821;-61
2022/09/17 03:28:50;;;;;;;4.97;3.87;;;;;;;9.15;87.45;97549.88;1716914;83;25441;-61
2022/09/17 03:31:16;;;;;;;7.28;4.17;;;;;;;9.15;87.33;97555.34;1717048;83;27454;-61
2022/09/17 03:33:42;;;;;;;7.60;4.55;;;;;;;9.14;87.25;97551.84;1716576;83;25706;-61
2022/09/17 03:36:08;;;;;;;7.00;4.67;;;;;;;9.14;87.26;97547.73;1716925;83;25674;-60
2022/09/17 03:38:34;;;;;;;9.05;5.20;;;;;;;9.15;86.93;97550.70;1716614;83;25903;-60
2022/09/17 03:41:05;;;;;;;5.50;4.08;;;;;;;9.16;86.86;97540.57;1716778;83;25686;-60
2022/09/17 03:43:32;;;;;;;7.90;4.53;;;;;;;9.14;87.34;97531.89;1716537;83;28173;-59
2022/09/17 03:45:59;;;;;;;6.12;3.95;;;;;;;9.14;87.17;97527.79;1716804;83;25987;-59
2022/09/17 03:48:26;;;;;;;9.80;4.65;;;;;;;9.13;87.45;97533.81;1716781;83;25508;-59
2022/09/17 03:50:51;;;;;;;6.45;4.78;;;;;;;9.12;87.18;97527.31;1717207;83;25738;-59
2022/09/17 03:53:18;;;;;;;7.58;4.30;;;;;;;9.11;87.18;97527.09;1717196;83;25473;-59
2022/09/17 03:55:44;;;;;;;7.00;4.40;;;;;;;9.10;87.22;97516.71;1716884;83;27432;-60
2022/09/17 03:58:09;;;;;;;7.25;4.62;;;;;;;9.10;87.00;97515.93;1716974;83;25985;-59
2022/09/17 04:00:36;;;;;;;7.08;4.42;;;;;;;9.10;87.10;97522.18;1718054;83;25465;-60
2022/09/17 04:03:04;;;;;;;6.45;4.60;;;;;;;9.11;87.03;97520.25;1722331;83;25948;-60
2022/09/17 04:05:30;;;;;;;7.83;4.55;;;;;;;9.11;87.03;97525.72;1722386;83;25462;-59
2022/09/17 04:07:56;;;;;;;6.20;4.12;;;;;;;9.08;87.21;97531.30;1722164;83;29497;-59
2022/09/17 04:10:22;;;;;;;6.60;3.77;;;;;;;9.09;87.32;97534.25;1722319;83;25924;-60
2022/09/17 04:12:48;;;;;;;5.10;3.72;;;;;;;9.09;87.45;97540.27;1722366;83;25515;-60
2022/09/17 04:15:15;;;;;;;7.35;4.72;;;;;;;9.06;87.79;97530.03;1722410;82;25804;-60
2022/09/17 04:17:40;;;;;;;6.05;4.15;;;;;;;9.08;87.47;97530.48;1722433;83;25642;-59
2022/09/17 04:20:08;;;;;;;7.25;4.12;;;;;;;9.07;87.56;97531.63;1722421;83;27485;-60
2022/09/17 04:22:34;;;;;;;5.35;3.45;;;;;;;9.06;87.44;97528.66;1722374;83;25651;-59
2022/09/17 04:25:00;;;;;;;10.78;4.33;;;;;;;9.03;87.66;97518.63;1722588;83;25738;-59
2022/09/17 04:27:26;;;;;;;8.75;3.92;;;;;;;9.02;87.59;97524.42;1722624;83;25932;-59
2022/09/17 04:29:52;;;;;;;5.45;3.75;;;;;;;8.99;87.75;97526.45;1722454;83;25736;-59
2022/09/17 04:32:18;;;;;;;4.85;3.10;;;;;;;8.95;88.34;97524.93;1722404;83;28332;-60
2022/09/17 04:34:44;;;;;;;7.65;4.15;;;;;;;8.94;88.50;97523.89;1722342;83;25659;-60
2022/09/17 04:37:10;;;;;;;8.20;4.50;;;;;;;8.94;88.25;97514.33;1722003;83;25450;-60
2022/09/17 04:39:37;;;;;;;6.97;4.20;;;;;;;8.97;88.12;97508.20;1722135;83;26673;-59
2022/09/17 04:42:03;;;;;;;6.42;3.80;;;;;;;8.98;87.94;97503.77;1722381;83;25642;-60
2022/09/17 04:44:29;;;;;;;6.90;4.42;;;;;;;8.98;88.30;97505.14;1722539;83;27671;-60
2022/09/17 04:46:55;;;;;;;5.70;4.47;;;;;;;8.99;87.93;97508.13;1722012;83;25658;-60
2022/09/17 04:49:21;;;;;;;6.65;4.78;;;;;;;9.02;88.02;97508.02;1722181;83;25639;-60
2022/09/17 04:51:47;;;;;;;6.75;4.30;;;;;;;9.05;88.03;97508.73;1722257;83;26686;-60
2022/09/17 04:54:13;;;;;;;6.78;3.42;;;;;;;9.09;88.06;97507.48;1722349;83;25701;-60
2022/09/17 04:56:39;;;;;;;3.50;2.15;;;;;;;9.11;88.17;97512.05;1721959;83;27405;-60
2022/09/17 04:59:05;;;;;;;4.90;3.83;;;;;;;9.13;88.33;97520.14;1722335;83;25810;-60
2022/09/17 05:01:31;;;;;;;6.30;4.10;;;;;;;9.21;88.07;97532.74;1716413;83;25422;-60
2022/09/17 05:03:57;;;;;;;4.62;3.33;;;;;;;9.23;87.83;97523.63;1708998;84;26495;-60
2022/09/17 05:06:23;;;;;;;4.78;3.22;;;;;;;9.28;87.66;97531.08;1709138;84;25595;-60
2022/09/17 05:08:49;;;;;;;5.62;3.62;;;;;;;9.33;87.53;97542.95;1709115;84;27617;-61
2022/09/17 05:11:15;;;;;;;5.37;3.60;;;;;;;9.37;87.33;97544.68;1708741;84;26021;-60
2022/09/17 05:13:41;;;;;;;5.97;3.60;;;;;;;9.40;87.46;97541.28;1709149;84;25750;-60
2022/09/17 05:16:07;;;;;;;5.33;3.50;;;;;;;9.45;87.31;97542.20;1709557;83;25748;-60
2022/09/17 05:18:33;;;;;;;7.05;3.50;;;;;;;9.50;87.09;97545.53;1709382;83;25435;-60
2022/09/17 05:20:59;;;;;;;5.25;3.40;;;;;;;9.56;86.98;97544.78;1708743;84;28337;-60
2022/09/17 05:23:24;;;;;;;5.85;3.55;;;;;;;9.63;86.93;97541.49;1708711;84;25862;-60
2022/09/17 05:25:51;;;;;;;5.70;3.55;;;;;;;9.72;86.73;97541.41;1709096;84;25587;-60
2022/09/17 05:28:17;;;;;;;5.80;3.30;;;;;;;9.77;86.77;97539.84;1708701;84;25459;-60
2022/09/17 05:30:43;;;;;;;6.10;3.70;;;;;;;9.83;86.49;97533.59;1708853;83;25636;-60
2022/09/17 05:33:09;;;;;;;5.53;3.98;;;;;;;9.87;86.38;97531.22;1708738;84;28495;-60
2022/09/17 05:35:35;;;;;;;5.67;3.52;;;;;;;9.91;86.03;97536.23;1708987;84;25849;-59
2022/09/17 05:38:04;;;;;;;6.97;4.37;;;;;;;9.95;85.98;97529.53;1709054;83;25702;-59
2022/09/17 05:40:34;;;;;;;6.47;4.10;;;;;;;9.99;85.72;97529.66;1708975;84;25885;-60
2022/09/17 05:43:04;;;;;;;11.53;4.83;;;;;;;10.03;85.79;97540.97;1708736;84;25505;-59
2022/09/17 05:45:32;;;;;;;8.20;4.00;;;;;;;10.07;85.62;97544.41;1708951;84;27464;-60
2022/09/17 05:48:02;;;;;;;7.90;3.67;;;;;;;10.10;85.71;97540.41;1708795;83;25658;-60
2022/09/17 05:50:29;;;;;;;7.03;4.10;;;;;;;10.17;85.52;97535.16;1708957;84;25506;-60
2022/09/17 05:52:56;;;;;;;7.17;4.40;;;;;;;10.26;85.49;97532.91;1708897;84;26171;-60
2022/09/17 05:55:23;;;;;;;7.53;4.50;;;;;;;10.32;85.42;97534.30;1709198;83;25602;-60
2022/09/17 05:57:50;;;;;;;8.15;4.28;;;;;;;10.44;85.28;97528.59;1709175;84;27421;-60
2022/09/17 06:00:16;;;;;;;7.62;4.25;;;;;;;10.52;84.98;97523.62;1708874;84;25618;-60
2022/09/17 06:02:42;;;;;;;6.55;4.60;;;;;;;10.63;84.73;97521.23;1719539;83;25496;-60
2022/09/17 06:05:09;;;;;;;6.78;3.25;;;;;;;10.74;85.19;97526.47;1722317;83;26516;-61
2022/09/17 06:07:37;;;;;;;6.65;3.25;;;;;;;10.86;83.96;97522.95;1722346;83;25714;-61
2022/09/17 06:10:07;;;;;;;7.83;4.35;;;;;;;10.92;83.26;97512.54;1722309;83;27542;-61
2022/09/17 06:12:34;;;;;;;10.00;4.23;;;;;;;10.98;83.63;97507.05;1722647;82;25694;-60
2022/09/17 06:15:02;;;;;;;7.15;3.83;;;;;;;11.09;84.03;97521.09;1722140;82;25673;-61
2022/09/17 06:17:33;;;;;;;8.00;4.12;;;;;;;11.17;83.58;97517.99;1722165;83;26351;-60
2022/09/17 06:20:01;;;;;;;6.92;3.70;;;;;;;11.20;82.92;97523.34;1722033;82;25601;-61
2022/09/17 06:22:27;;;;;;;7.85;4.65;;;;;;;11.22;82.43;97527.89;1722140;83;27513;-60
2022/09/17 06:24:53;;;;;;;11.50;3.92;;;;;;;11.23;82.65;97526.77;1722210;83;25765;-60
2022/09/17 06:27:19;;;;;;;7.25;3.37;;;;;;;11.26;81.81;97537.83;1722334;83;25449;-61
2022/09/17 06:29:45;;;;;;;9.43;3.87;;;;;;;11.22;81.00;97537.50;1722250;83;26579;-60
2022/09/17 06:32:14;;;;;;;7.95;3.65;;;;;;;11.21;82.00;97545.50;1722526;83;25591;-60
2022/09/17 06:34:40;;;;;;;6.47;3.62;;;;;;;11.23;81.65;97545.97;1722135;83;25905;-61
2022/09/17 06:37:06;;;;;;;5.65;3.92;;;;;;;11.28;81.78;97547.08;1721880;83;26055;-60
2022/09/17 06:39:33;;;;;;;5.03;3.35;;;;;;;11.36;82.32;97537.94;1722212;83;25467;-60
2022/09/17 06:41:59;;;;;;;6.58;3.60;;;;;;;11.46;82.08;97528.44;1721977;82;25806;-60
2022/09/17 06:44:25;;;;;;;7.22;3.15;;;;;;;11.59;81.88;97542.90;1722275;83;25635;-60
2022/09/17 06:46:51;;;;;;;5.55;3.30;;;;;;;11.72;81.54;97551.09;1722489;83;27476;-60
2022/09/17 06:49:19;;;;;;;4.92;3.60;;;;;;;11.79;80.95;97557.59;1722220;83;25510;-60
2022/09/17 06:51:45;;;;;;;4.20;3.17;;;;;;;11.85;81.55;97547.71;1722339;83;25623;-60
2022/09/17 06:54:12;;;;;;;3.95;3.05;;;;;;;11.90;80.79;97547.47;1722342;83;26548;-60
2022/09/17 06:56:38;;;;;;;4.30;3.02;;;;;;;11.89;80.46;97547.25;1722335;83;25508;-59
2022/09/17 06:59:04;;;;;;;5.85;3.00;;;;;;;11.91;80.08;97551.23;1722174;83;27506;-59
2022/09/17 07:01:30;;;;;;;5.17;3.02;;;;;;;11.92;79.50;97550.08;1721828;83;25974;-60
2022/09/17 07:03:56;;;;;;;3.80;3.10;;;;;;;11.97;79.99;97544.13;1722190;83;25635;-59
2022/09/17 07:06:22;;;;;;;6.70;2.95;;;;;;;11.98;79.57;97549.84;1722446;83;25916;-59
2022/09/17 07:08:49;;;;;;;4.45;2.87;;;;;;;11.99;79.29;97549.49;1722360;83;25643;-59
2022/09/17 07:11:15;;;;;;;4.53;2.58;;;;;;;12.14;79.02;97554.82;1721944;83;27393;-59
2022/09/17 07:13:41;;;;;;;2.87;2.45;;;;;;;12.14;79.02;97554.82;1721925;82;25730;-59
2022/09/17 07:16:09;;;;;;;2.70;2.42;;;;;;;12.33;78.48;97573.14;1722349;83;25603;-59
2022/09/17 07:18:36;;;;;;;5.60;2.92;;;;;;;12.48;78.92;97575.11;1722297;83;26465;-60
2022/09/17 07:21:05;;;;;;;4.50;2.83;;;;;;;12.59;78.21;97581.45;1722063;83;25590;-59
2022/09/17 07:23:36;;;;;;;4.62;2.95;;;;;;;12.71;78.04;97583.31;1722473;83;27490;-60
2022/09/17 07:26:07;;;;;;;3.77;2.67;;;;;;;12.79;77.95;97576.28;1722190;83;25643;-59
2022/09/17 07:28:34;;;;;;;3.95;2.92;;;;;;;12.84;77.01;97577.94;1722421;82;25457;-60
2022/09/17 07:31:04;;;;;;;4.08;2.85;;;;;;;12.94;77.13;97579.37;1722426;83;26687;-59
2022/09/17 07:33:31;;;;;;;3.87;2.80;;;;;;;12.97;76.83;97592.97;1722567;83;25374;-60
2022/09/17 07:36:02;;;;;;;3.58;2.77;;;;;;;13.10;77.14;97595.06;1722449;83;27374;-60
2022/09/17 07:38:30;;;;;;;6.62;3.05;;;;;;;13.10;77.14;97595.06;1722418;83;25919;-60
2022/09/17 07:41:02;;;;;;;3.85;3.40;;;;;;;13.16;75.39;97595.78;1722292;82;25497;-60
2022/09/17 07:43:31;;;;;;;6.78;3.40;;;;;;;13.27;76.48;97595.26;1722523;83;26342;-60
2022/09/17 07:46:00;;;;;;;4.78;2.87;;;;;;;13.42;76.19;97593.03;1722252;83;25655;-60
2022/09/17 07:48:27;;;;;;;6.12;3.12;;;;;;;13.54;74.98;97581.72;1722346;83;27394;-59
2022/09/17 07:50:55;;;;;;;6.30;3.10;;;;;;;13.70;75.89;97583.02;1722307;82;25731;-60
2022/09/17 07:53:21;;;;;;;4.97;3.25;;;;;;;13.80;74.35;97578.91;1722403;83;25491;-60
2022/09/17 07:56:09;;;;;;;3.92;2.70;;;;;;;14.01;74.42;97585.42;1722233;82;25611;-59
2022/09/17 07:58:35;;;;;;;3.50;2.92;;;;;;;14.01;74.42;97585.42;1722453;82;25452;-61
2022/09/17 08:01:08;;;;;;;3.92;2.65;;;;;;;14.16;73.25;97578.80;1723025;83;28212;-59
2022/09/17 08:03:35;;;;;;;5.53;2.80;;;;;;;14.16;73.25;97578.80;1721957;83;25630;-63
2022/09/17 08:06:08;;;;;;;6.50;3.08;;;;;;;14.27;72.49;97578.44;1722335;83;25738;-62
2022/09/17 08:08:36;;;;;;;5.80;2.92;;;;;;;14.32;72.97;97580.09;1722110;83;25744;-60
2022/09/17 08:11:07;;;;;;;3.17;2.60;;;;;;;14.40;73.33;97576.89;1722343;83;25524;-61
2022/09/17 08:13:33;;;;;;;6.42;3.60;;;;;;;14.52;72.88;97573.16;1721880;83;28206;-59
2022/09/17 08:16:04;;;;;;;4.42;2.85;;;;;;;14.61;72.10;97572.34;1722324;83;25425;-59
2022/09/17 08:18:31;;;;;;;;;;;;;;;14.66;70.58;97559.63;1725074;83;25615;-59
2022/09/17 08:20:59;;;;;;;3.22;2.47;;;;;;;14.71;71.40;97561.26;1722290;83;25677;-62
2022/09/17 08:23:28;;;;;;;3.62;2.80;;;;;;;14.77;70.17;97570.04;1722272;83;25678;-60
2022/09/17 08:25:59;;;;;;;2.45;2.25;;;;;;;14.84;70.77;97577.64;1722181;82;27488;-59
2022/09/17 08:28:28;;;;;;;4.42;2.85;;;;;;;14.98;69.99;97582.03;1722388;83;25603;-59
2022/09/17 08:31:01;;;;;;;4.08;2.70;;;;;;;15.25;70.44;97590.88;1722367;83;25635;-59
2022/09/17 08:33:31;;;;;;;3.50;2.83;;;;;;;15.48;68.28;97589.45;1722389;82;25651;-60
2022/09/17 08:36:01;;;;;;;6.17;2.70;;;;;;;15.87;67.68;97598.05;1722244;83;25702;-59
2022/09/17 08:38:31;;;;;;;4.60;2.92;;;;;;;16.17;65.62;97594.48;1722160;83;28010;-59
2022/09/17 08:41:41;;;;;;;5.70;2.77;;;;;;;16.52;65.61;97580.62;1722237;83;25929;-59
2022/09/17 08:44:21;;;;;;;3.62;2.25;;;;;;;16.74;64.90;97569.16;1722774;83;25473;-64
2022/09/17 08:47:05;;;;;;;2.92;2.27;;;;;;;16.96;62.15;97551.34;1722139;82;25718;-61
2022/09/17 08:49:53;;;;;;;3.10;2.45;;;;;;;16.92;61.71;97547.73;1721241;83;25657;-63
2022/09/17 08:52:58;;;;;;;4.60;2.62;;;;;;;16.98;62.95;97539.89;1722136;83;29475;-60
2022/09/17 08:55:33;;;;;;;4.10;2.60;;;;;;;17.18;63.90;97543.20;1722103;83;25635;-62
2022/09/17 08:58:23;;;;;;;5.00;2.75;;;;;;;17.52;61.76;97546.36;1722418;83;25497;-60
2022/09/17 09:01:22;;;;;;;2.85;1.90;;;;;;;17.88;63.02;97550.66;1689809;84;25823;-61
2022/09/17 09:04:10;;;;;;;3.08;2.15;;;;;;;18.18;59.33;97557.92;1678281;85;25676;-60
2022/09/17 09:06:45;;;;;;;2.55;1.70;;;;;;;18.18;60.36;97558.51;1678152;85;27492;-59
2022/09/17 09:09:18;;;;;;;2.08;1.87;;;;;;;18.16;59.26;97563.64;1678090;85;25565;-61
2022/09/17 09:11:47;;;;;;;2.33;1.65;;;;;;;18.11;57.48;97561.27;1678041;85;25749;-60
2022/09/17 09:14:27;;;;;;;2.60;1.80;;;;;;;18.01;58.72;97563.58;1678022;85;25743;-59
2022/09/17 09:16:56;;;;;;;3.37;1.65;;;;;;;17.99;59.31;97569.33;1675272;85;25799;-59
2022/09/17 09:19:29;;;;;;;3.50;1.62;;;;;;;18.04;58.80;97581.41;1678026;85;28206;-59
2022/09/17 09:22:07;;;;;;;2.85;1.82;;;;;;;18.04;59.33;97590.52;1677828;85;25637;-59
2022/09/17 09:25:03;;;;;;;3.83;1.70;;;;;;;17.95;58.54;97584.55;1676682;85;25887;-60
2022/09/17 09:28:06;;;;;;;2.12;1.62;;;;;;;17.80;58.28;97578.16;1678020;85;25786;-59
2022/09/17 09:30:47;;;;;;;2.37;1.82;;;;;;;17.70;57.50;97574.14;1677901;85;25552;-59
2022/09/17 09:33:17;;;;;;;;;;;;;;;17.70;58.91;97574.14;1669547;85;27487;-59
2022/09/17 09:35:44;;;;;;;4.00;2.00;;;;;;;17.74;58.61;97578.33;1677906;85;26505;-59
2022/09/17 09:38:22;;;;;;;2.72;2.02;;;;;;;17.83;58.35;97589.84;1678219;85;25463;-59
2022/09/17 09:41:15;;;;;;;5.12;1.98;;;;;;;17.87;58.80;97597.58;1700410;83;25735;-59
2022/09/17 09:43:49;;;;;;;4.08;2.50;;;;;;;17.79;58.06;97591.20;1717030;83;25607;-59
2022/09/17 09:46:37;;;;;;;2.35;1.70;;;;;;;17.76;57.26;97583.67;1716485;83;27651;-58
2022/09/17 09:49:33;;;;;;;2.00;1.80;;;;;;;17.66;57.83;97589.95;1716760;83;25623;-58
2022/09/17 09:52:10;;;;;;;2.90;1.90;;;;;;;17.62;58.76;97591.31;1716883;83;25679;-59
2022/09/17 09:55:00;;;;;;;4.80;2.22;;;;;;;17.74;58.52;97594.95;1717314;83;26576;-58
2022/09/17 09:57:47;;;;;;;2.10;1.90;;;;;;;17.77;57.81;97596.94;1717340;83;25619;-59
2022/09/17 10:00:28;;;;;;;3.98;1.80;;;;;;;17.70;57.07;97593.53;1716534;83;27637;-59
2022/09/17 10:03:31;;;;;;;2.80;2.15;;;;;;;17.46;56.40;97587.48;1718375;83;25463;-61
2022/09/17 10:06:07;;;;;;;3.17;2.05;;;;;;;17.41;58.39;97588.64;1721992;83;25655;-59
2022/09/17 10:08:37;;;;;;;6.58;2.70;;;;;;;17.40;57.49;97586.25;1722397;83;25918;-59
2022/09/17 10:11:12;;;;;;;3.77;2.22;;;;;;;17.37;58.54;97596.14;1722230;83;25640;-59
2022/09/17 10:13:39;;;;;;;6.47;2.83;;;;;;;17.38;57.97;97601.06;1722427;82;27502;-59
2022/09/17 10:16:28;;;;;;;3.75;1.82;;;;;;;17.24;58.35;97599.80;1722242;83;25627;-61
2022/09/17 10:19:08;;;;;;;4.00;2.27;;;;;;;17.12;59.41;97597.33;1722360;83;25497;-59
2022/09/17 10:21:41;;;;;;;3.35;1.67;;;;;;;17.19;59.60;97605.71;1722434;82;26519;-60
2022/09/17 10:24:27;;;;;;;2.52;1.77;;;;;;;17.13;59.80;97610.02;1722364;83;25616;-60
2022/09/17 10:27:08;;;;;;;2.87;2.22;;;;;;;17.21;58.46;97604.72;1722168;83;28149;-60
2022/09/17 10:29:36;;;;;;;3.60;2.25;;;;;;;17.28;57.62;97605.37;1720049;83;25935;-60
2022/09/17 10:32:05;;;;;;;3.83;2.10;;;;;;;17.29;57.86;97603.60;1721741;83;25453;-59
2022/09/17 10:34:32;;;;;;;3.15;2.30;;;;;;;17.25;56.67;97596.45;1721628;83;25699;-60
2022/09/17 10:36:59;;;;;;;3.90;1.90;;;;;;;17.09;57.57;97594.75;1722031;83;25802;-59
2022/09/17 10:39:43;;;;;;;2.35;1.77;;;;;;;17.04;57.62;97598.64;1721855;83;26960;-59
2022/09/17 10:42:16;;;;;;;2.77;1.77;;;;;;;17.03;57.95;97609.52;1721488;83;26332;-59
2022/09/17 10:44:55;;;;;;;4.17;1.80;;;;;;;17.06;58.24;97611.52;1722284;83;25583;-59
2022/09/17 10:47:31;;;;;;;2.95;2.20;;;;;;;17.05;57.79;97611.31;1721930;83;25426;-59
2022/09/17 10:50:02;;;;;;;4.03;2.00;;;;;;;17.11;57.09;97605.44;1721865;83;25437;-60
2022/09/17 10:52:35;;;;;;;2.83;2.02;;;;;;;17.19;57.74;97607.09;1722300;83;28139;-59
2022/09/17 10:55:39;;;;;;;4.78;1.80;;;;;;;17.24;57.87;97612.86;1722063;83;25488;-59
2022/09/17 10:58:36;;;;;;;2.67;1.95;;;;;;;17.13;58.52;97608.02;1722014;83;25520;-59
2022/09/17 11:01:34;;;;;;;3.62;1.75;;;;;;;17.10;59.09;97609.39;1721966;83;27796;-58
2022/09/17 11:04:26;;;;;;;3.37;1.90;;;;;;;17.01;58.64;97601.39;1712897;83;25616;-59
2022/09/17 11:07:10;;;;;;;2.30;2.10;;;;;;;16.85;58.33;97597.49;1708625;84;27404;-58
2022/09/17 11:09:47;;;;;;;4.40;2.70;;;;;;;16.74;59.12;97591.28;1708477;84;25705;-58
2022/09/17 11:12:39;;;;;;;2.58;2.05;;;;;;;16.67;59.16;97600.30;1707967;83;25438;-59
2022/09/17 11:15:29;;;;;;;2.40;2.10;;;;;;;16.61;58.86;97612.88;1708590;83;25660;-58
2022/09/17 11:18:39;;;;;;;2.87;2.00;;;;;;;16.51;59.46;97619.11;1708803;84;25438;-60
2022/09/17 11:21:38;;;;;;;2.77;1.98;;;;;;;16.38;58.76;97611.08;1708657;84;27376;-58
2022/09/17 11:24:34;;;;;;;3.67;2.50;;;;;;;16.14;58.98;97611.01;1707710;83;25767;-58
2022/09/17 11:27:23;;;;;;;3.87;2.40;;;;;;;15.93;59.84;97613.70;1709082;83;25623;-59
2022/09/17 11:30:17;;;;;;;3.85;2.47;;;;;;;15.75;60.84;97621.16;1708903;83;25680;-59
2022/09/17 11:32:54;;;;;;;3.12;1.98;;;;;;;15.63;61.19;97613.13;1708745;84;25441;-62
2022/09/17 11:35:38;;;;;;;3.52;2.67;;;;;;;15.54;60.84;97608.66;1708616;83;27455;-59
2022/09/17 11:38:16;;;;;;;3.30;2.55;;;;;;;15.46;62.51;97609.75;1708497;84;25430;-61
2022/09/17 11:41:09;;;;;;;3.80;3.12;;;;;;;15.41;61.23;97610.06;1708684;83;25604;-62
2022/09/17 11:43:40;;;;;;;5.80;3.98;;;;;;;15.40;62.98;97604.34;1708764;83;25742;-63
2022/09/17 11:46:23;;;;;;;4.60;3.22;;;;;;;15.33;64.18;97606.39;1709069;84;26150;-62
2022/09/17 11:49:04;;;;;;;4.03;2.75;;;;;;;15.20;62.97;97605.80;1709023;83;28265;-62
2022/09/17 11:51:35;;;;;;;5.35;3.47;;;;;;;15.08;63.68;97602.66;1708268;83;25914;-59
2022/09/17 11:54:31;;;;;;;5.42;3.15;;;;;;;15.03;64.24;97597.47;1707360;83;25572;-62
2022/09/17 11:57:06;;;;;;;3.60;2.42;;;;;;;14.95;64.90;97589.66;1708951;84;26689;-62
2022/09/17 11:59:38;;;;;;;6.00;2.70;;;;;;;14.76;66.00;97593.25;1709112;83;25923;-62
2022/09/17 12:02:16;;;;;;;2.95;2.47;;;;;;;14.57;67.11;97592.16;1709075;83;27430;-62
2022/09/17 12:04:50;;;;;;;4.50;2.40;;;;;;;14.44;67.14;97598.42;1688690;83;25868;-59
2022/09/17 12:07:28;;;;;;;5.40;3.00;;;;;;;14.37;67.39;97596.34;1720198;83;25569;-60
2022/09/17 12:10:25;;;;;;;5.17;3.27;;;;;;;14.34;69.42;97590.76;1720023;83;25721;-61